sensor_id;sensor_type;location;lat;lon;timestamp;temperature;humidity
19033;DHT22;9649;51.042;13.804;2022-11-11T00:03:54;6.80;99.90
19033;DHT22;9649;51.042;13.804;2022-11-11T00:08:57;6.60;99.90
19033;DHT22;9649;51.042;13.804;2022-11-11T00:14:00;6.50;99.90
19033;DHT22;9649;51.042;13.804;2022-11-11T00:19:04;6.70;99.90
19033;DHT22;9649;51.042;13.804;2022-11-11T00:24:33;6.70;99.90
19033;DHT22;9649;51.042;13.804;2022-11-11T00:29:53;6.50;99.90
19033;DHT22;9649;51.042;13.804;2022-11-11T00:34:58;6.30;99.90
19033;DHT22;9649;51.042;13.804;2022-11-11T00:40:19;6.30;99.90
19033;DHT22;9649;51.042;13.804;2022-11-11T00:45:21;6.20;99.90
19033;DHT22;9649;51.042;13.804;2022-11-11T00:50:27;6.30;99.90
19033;DHT22;9649;51.042;13.804;2022-11-11T00:55:48;6.30;99.90
19033;DHT22;9649;51.042;13.804;2022-11-11T01:00:51;6.50;99.90
19033;DHT22;9649;51.042;13.804;2022-11-11T01:06:00;6.50;99.90
19033;DHT22;9649;51.042;13.804;2022-11-11T01:11:09;6.50;99.90
19033;DHT22;9649;51.042;13.804;2022-11-11T01:16:15;6.60;99.90
19033;DHT22;9649;51.042;13.804;2022-11-11T01:21:21;6.50;99.90
19033;DHT22;9649;51.042;13.804;2022-11-11T01:26:26;6.40;99.90
19033;DHT22;9649;51.042;13.804;2022-11-11T01:31:32;6.30;99.90
19033;DHT22;9649;51.042;13.804;2022-11-11T01:36:36;6.00;99.90
19033;DHT22;9649;51.042;13.804;2022-11-11T01:41:39;5.80;99.90
19033;DHT22;9649;51.042;13.804;2022-11-11T01:46:46;6.00;99.90
19033;DHT22;9649;51.042;13.804;2022-11-11T01:51:59;6.10;99.90
19033;DHT22;9649;51.042;13.804;2022-11-11T01:57:05;5.80;99.90
19033;DHT22;9649;51.042;13.804;2022-11-11T02:02:16;5.60;99.90
19033;DHT22;9649;51.042;13.804;2022-11-11T02:07:22;5.60;99.90
19033;DHT22;9649;51.042;13.804;2022-11-11T02:12:25;5.60;99.90
19033;DHT22;9649;51.042;13.804;2022-11-11T02:17:47;5.60;99.90
19033;DHT22;9649;51.042;13.804;2022-11-11T02:22:57;5.60;99.90
19033;DHT22;9649;51.042;13.804;2022-11-11T02:28:05;5.50;99.90
19033;DHT22;9649;51.042;13.804;2022-11-11T02:33:08;5.50;99.90
19033;DHT22;9649;51.042;13.804;2022-11-11T02:38:12;5.70;99.90
19033;DHT22;9649;51.042;13.804;2022-11-11T02:43:16;6.00;99.90
19033;DHT22;9649;51.042;13.804;2022-11-11T02:48:20;6.00;99.90
19033;DHT22;9649;51.042;13.804;2022-11-11T02:53:24;5.90;99.90
19033;DHT22;9649;51.042;13.804;2022-11-11T02:58:29;6.00;99.90
19033;DHT22;9649;51.042;13.804;2022-11-11T03:03:32;5.90;99.90
19033;DHT22;9649;51.042;13.804;2022-11-11T03:08:35;5.80;99.90
19033;DHT22;9649;51.042;13.804;2022-11-11T03:13:39;5.70;99.90
19033;DHT22;9649;51.042;13.804;2022-11-11T03:18:42;5.80;99.90
19033;DHT22;9649;51.042;13.804;2022-11-11T03:23:45;5.80;99.90
19033;DHT22;9649;51.042;13.804;2022-11-11T03:28:49;5.70;99.90
19033;DHT22;9649;51.042;13.804;2022-11-11T03:33:52;5.80;99.90
19033;DHT22;9649;51.042;13.804;2022-11-11T03:38:57;5.70;99.90
19033;DHT22;9649;51.042;13.804;2022-11-11T03:44:01;5.70;99.90
19033;DHT22;9649;51.042;13.804;2022-11-11T03:49:04;5.70;99.90
19033;DHT22;9649;51.042;13.804;2022-11-11T03:54:07;5.60;99.90
19033;DHT22;9649;51.042;13.804;2022-11-11T03:59:11;5.50;99.90
19033;DHT22;9649;51.042;13.804;2022-11-11T04:04:13;5.60;99.90
19033;DHT22;9649;51.042;13.804;2022-11-11T04:09:34;5.50;99.90
19033;DHT22;9649;51.042;13.804;2022-11-11T04:14:56;5.40;99.90
19033;DHT22;9649;51.042;13.804;2022-11-11T04:20:16;5.20;99.90
19033;DHT22;9649;51.042;13.804;2022-11-11T04:25:37;5.20;99.90
19033;DHT22;9649;51.042;13.804;2022-11-11T04:30:55;5.30;99.90
19033;DHT22;9649;51.042;13.804;2022-11-11T04:35:58;5.40;99.90
19033;DHT22;9649;51.042;13.804;2022-11-11T04:41:00;5.40;99.90
19033;DHT22;9649;51.042;13.804;2022-11-11T04:46:08;5.40;99.90
19033;DHT22;9649;51.042;13.804;2022-11-11T04:51:11;5.50;99.90
19033;DHT22;9649;51.042;13.804;2022-11-11T04:56:13;5.50;99.90
19033;DHT22;9649;51.042;13.804;2022-11-11T05:01:35;5.60;99.90
19033;DHT22;9649;51.042;13.804;2022-11-11T05:06:55;5.60;99.90
19033;DHT22;9649;51.042;13.804;2022-11-11T05:12:16;5.50;99.90
19033;DHT22;9649;51.042;13.804;2022-11-11T05:17:20;5.40;99.90
19033;DHT22;9649;51.042;13.804;2022-11-11T05:22:42;5.30;99.90
19033;DHT22;9649;51.042;13.804;2022-11-11T05:27:45;5.50;99.90
19033;DHT22;9649;51.042;13.804;2022-11-11T05:32:49;5.50;99.90
19033;DHT22;9649;51.042;13.804;2022-11-11T05:37:52;5.40;99.90
19033;DHT22;9649;51.042;13.804;2022-11-11T05:43:09;5.30;99.90
19033;DHT22;9649;51.042;13.804;2022-11-11T05:48:13;5.20;99.90
19033;DHT22;9649;51.042;13.804;2022-11-11T05:53:16;5.30;99.90
19033;DHT22;9649;51.042;13.804;2022-11-11T05:58:25;5.30;99.90
19033;DHT22;9649;51.042;13.804;2022-11-11T06:03:29;5.50;99.90
19033;DHT22;9649;51.042;13.804;2022-11-11T06:08:32;5.60;99.90
19033;DHT22;9649;51.042;13.804;2022-11-11T06:13:35;5.50;99.90
19033;DHT22;9649;51.042;13.804;2022-11-11T06:18:39;5.60;99.90
19033;DHT22;9649;51.042;13.804;2022-11-11T06:23:42;5.80;99.90
19033;DHT22;9649;51.042;13.804;2022-11-11T06:28:47;5.80;99.90
19033;DHT22;9649;51.042;13.804;2022-11-11T06:33:52;5.80;99.90
19033;DHT22;9649;51.042;13.804;2022-11-11T06:38:55;5.80;99.90
19033;DHT22;9649;51.042;13.804;2022-11-11T06:43:57;5.80;99.90
19033;DHT22;9649;51.042;13.804;2022-11-11T06:49:02;5.90;99.90
19033;DHT22;9649;51.042;13.804;2022-11-11T06:54:05;6.10;99.90
19033;DHT22;9649;51.042;13.804;2022-11-11T06:59:07;6.20;99.90
19033;DHT22;9649;51.042;13.804;2022-11-11T07:04:12;6.40;99.90
19033;DHT22;9649;51.042;13.804;2022-11-11T07:09:14;6.50;99.90
19033;DHT22;9649;51.042;13.804;2022-11-11T07:14:17;6.70;99.90
19033;DHT22;9649;51.042;13.804;2022-11-11T07:19:21;7.00;99.90
19033;DHT22;9649;51.042;13.804;2022-11-11T07:24:24;7.30;99.90
19033;DHT22;9649;51.042;13.804;2022-11-11T07:29:27;7.70;99.90
19033;DHT22;9649;51.042;13.804;2022-11-11T07:34:32;8.80;99.90
19033;DHT22;9649;51.042;13.804;2022-11-11T07:39:34;11.60;1.00
19033;DHT22;9649;51.042;13.804;2022-11-11T07:44:37;14.40;1.00
19033;DHT22;9649;51.042;13.804;2022-11-11T07:49:44;14.10;1.00
19033;DHT22;9649;51.042;13.804;2022-11-11T07:54:47;13.30;99.90
19033;DHT22;9649;51.042;13.804;2022-11-11T07:59:50;13.60;1.00
19033;DHT22;9649;51.042;13.804;2022-11-11T08:04:54;12.90;1.00
19033;DHT22;9649;51.042;13.804;2022-11-11T08:09:57;12.80;1.00
19033;DHT22;9649;51.042;13.804;2022-11-11T08:15:00;12.80;1.00
19033;DHT22;9649;51.042;13.804;2022-11-11T08:20:10;14.10;1.00
19033;DHT22;9649;51.042;13.804;2022-11-11T08:25:13;15.10;1.00
19033;DHT22;9649;51.042;13.804;2022-11-11T08:30:16;14.10;1.00
19033;DHT22;9649;51.042;13.804;2022-11-11T08:35:20;12.60;1.00
19033;DHT22;9649;51.042;13.804;2022-11-11T08:40:23;11.50;99.90
19033;DHT22;9649;51.042;13.804;2022-11-11T08:45:28;10.80;1.00
19033;DHT22;9649;51.042;13.804;2022-11-11T08:50:32;10.70;1.00
19033;DHT22;9649;51.042;13.804;2022-11-11T08:55:35;10.80;1.00
19033;DHT22;9649;51.042;13.804;2022-11-11T09:00:39;11.50;1.00
19033;DHT22;9649;51.042;13.804;2022-11-11T09:05:44;12.40;1.00
19033;DHT22;9649;51.042;13.804;2022-11-11T09:10:47;13.30;99.90
19033;DHT22;9649;51.042;13.804;2022-11-11T09:15:52;13.80;1.00
19033;DHT22;9649;51.042;13.804;2022-11-11T09:20:58;15.50;99.90
19033;DHT22;9649;51.042;13.804;2022-11-11T09:26:01;15.30;1.00
19033;DHT22;9649;51.042;13.804;2022-11-11T09:31:05;15.80;1.00
19033;DHT22;9649;51.042;13.804;2022-11-11T09:36:29;18.20;1.00
19033;DHT22;9649;51.042;13.804;2022-11-11T09:41:41;19.40;1.00
19033;DHT22;9649;51.042;13.804;2022-11-11T09:46:53;16.10;1.00
19033;DHT22;9649;51.042;13.804;2022-11-11T09:52:02;15.20;99.90
19033;DHT22;9649;51.042;13.804;2022-11-11T09:57:13;13.90;1.00
19033;DHT22;9649;51.042;13.804;2022-11-11T10:02:27;13.30;99.90
19033;DHT22;9649;51.042;13.804;2022-11-11T10:07:37;13.20;1.00
19033;DHT22;9649;51.042;13.804;2022-11-11T10:12:46;13.30;1.00
19033;DHT22;9649;51.042;13.804;2022-11-11T10:18:07;13.60;1.00
19033;DHT22;9649;51.042;13.804;2022-11-11T10:23:24;13.60;99.90
19033;DHT22;9649;51.042;13.804;2022-11-11T10:28:34;15.40;99.90
19033;DHT22;9649;51.042;13.804;2022-11-11T10:33:43;16.60;99.90
19033;DHT22;9649;51.042;13.804;2022-11-11T10:38:54;17.40;1.00
19033;DHT22;9649;51.042;13.804;2022-11-11T10:44:01;17.30;1.00
19033;DHT22;9649;51.042;13.804;2022-11-11T10:49:07;16.40;99.90
19033;DHT22;9649;51.042;13.804;2022-11-11T10:54:16;15.70;1.00
19033;DHT22;9649;51.042;13.804;2022-11-11T10:59:23;15.10;1.00
19033;DHT22;9649;51.042;13.804;2022-11-11T11:04:32;15.80;99.90
19033;DHT22;9649;51.042;13.804;2022-11-11T11:09:42;17.80;99.90
19033;DHT22;9649;51.042;13.804;2022-11-11T11:14:48;21.40;1.00
19033;DHT22;9649;51.042;13.804;2022-11-11T11:20:07;24.10;1.00
19033;DHT22;9649;51.042;13.804;2022-11-11T11:25:12;22.50;1.00
19033;DHT22;9649;51.042;13.804;2022-11-11T11:30:18;21.30;1.00
19033;DHT22;9649;51.042;13.804;2022-11-11T11:35:35;21.20;1.00
19033;DHT22;9649;51.042;13.804;2022-11-11T11:40:51;21.00;1.00
19033;DHT22;9649;51.042;13.804;2022-11-11T11:45:55;20.90;1.00
19033;DHT22;9649;51.042;13.804;2022-11-11T11:51:15;19.00;1.00
19033;DHT22;9649;51.042;13.804;2022-11-11T11:56:32;19.50;88.10
19033;DHT22;9649;51.042;13.804;2022-11-11T12:01:43;19.50;15.50
19033;DHT22;9649;51.042;13.804;2022-11-11T12:06:58;20.30;1.00
19033;DHT22;9649;51.042;13.804;2022-11-11T12:12:11;21.20;1.00
19033;DHT22;9649;51.042;13.804;2022-11-11T12:17:28;19.90;1.00
19033;DHT22;9649;51.042;13.804;2022-11-11T12:22:43;20.30;1.00
19033;DHT22;9649;51.042;13.804;2022-11-11T12:27:55;20.80;1.00
19033;DHT22;9649;51.042;13.804;2022-11-11T12:33:43;22.20;1.00
19033;DHT22;9649;51.042;13.804;2022-11-11T12:38:57;21.10;1.00
19033;DHT22;9649;51.042;13.804;2022-11-11T12:44:04;19.40;1.00
19033;DHT22;9649;51.042;13.804;2022-11-11T12:49:22;18.90;99.90
19033;DHT22;9649;51.042;13.804;2022-11-11T12:54:33;17.60;1.00
19033;DHT22;9649;51.042;13.804;2022-11-11T12:59:56;17.10;99.90
19033;DHT22;9649;51.042;13.804;2022-11-11T13:05:07;17.10;1.00
19033;DHT22;9649;51.042;13.804;2022-11-11T13:10:24;16.80;1.00
19033;DHT22;9649;51.042;13.804;2022-11-11T13:15:33;16.50;99.90
19033;DHT22;9649;51.042;13.804;2022-11-11T13:20:43;16.00;1.00
19033;DHT22;9649;51.042;13.804;2022-11-11T13:25:50;15.80;99.90
19033;DHT22;9649;51.042;13.804;2022-11-11T13:31:19;15.50;1.00
19033;DHT22;9649;51.042;13.804;2022-11-11T13:36:26;15.30;1.00
19033;DHT22;9649;51.042;13.804;2022-11-11T13:41:32;15.10;1.00
19033;DHT22;9649;51.042;13.804;2022-11-11T13:46:39;14.90;99.90
19033;DHT22;9649;51.042;13.804;2022-11-11T13:51:56;14.70;1.00
19033;DHT22;9649;51.042;13.804;2022-11-11T13:57:06;14.80;1.00
19033;DHT22;9649;51.042;13.804;2022-11-11T14:02:29;14.80;1.00
19033;DHT22;9649;51.042;13.804;2022-11-11T14:07:50;14.50;99.90
19033;DHT22;9649;51.042;13.804;2022-11-11T14:12:55;14.30;99.90
19033;DHT22;9649;51.042;13.804;2022-11-11T14:18:00;14.10;1.00
19033;DHT22;9649;51.042;13.804;2022-11-11T14:23:29;13.90;99.90
19033;DHT22;9649;51.042;13.804;2022-11-11T14:28:39;13.60;1.00
19033;DHT22;9649;51.042;13.804;2022-11-11T14:33:50;13.40;1.00
19033;DHT22;9649;51.042;13.804;2022-11-11T14:39:00;13.10;99.90
19033;DHT22;9649;51.042;13.804;2022-11-11T14:44:39;12.90;1.00
19033;DHT22;9649;51.042;13.804;2022-11-11T14:49:48;12.70;1.00
19033;DHT22;9649;51.042;13.804;2022-11-11T14:55:00;12.40;1.00
19033;DHT22;9649;51.042;13.804;2022-11-11T15:00:12;12.20;1.00
19033;DHT22;9649;51.042;13.804;2022-11-11T15:05:22;12.00;1.00
19033;DHT22;9649;51.042;13.804;2022-11-11T15:10:33;11.80;1.00
19033;DHT22;9649;51.042;13.804;2022-11-11T15:15:41;11.80;1.00
19033;DHT22;9649;51.042;13.804;2022-11-11T15:20:59;11.70;1.00
19033;DHT22;9649;51.042;13.804;2022-11-11T15:26:10;11.60;1.00
19033;DHT22;9649;51.042;13.804;2022-11-11T15:31:19;11.40;1.00
19033;DHT22;9649;51.042;13.804;2022-11-11T15:36:33;11.30;1.00
19033;DHT22;9649;51.042;13.804;2022-11-11T15:41:40;11.10;1.00
19033;DHT22;9649;51.042;13.804;2022-11-11T15:46:44;11.10;1.00
19033;DHT22;9649;51.042;13.804;2022-11-11T15:51:56;10.90;1.00
19033;DHT22;9649;51.042;13.804;2022-11-11T15:56:59;11.00;1.00
19033;DHT22;9649;51.042;13.804;2022-11-11T16:02:06;10.80;1.00
19033;DHT22;9649;51.042;13.804;2022-11-11T16:07:18;10.70;1.00
19033;DHT22;9649;51.042;13.804;2022-11-11T16:12:24;10.70;1.00
19033;DHT22;9649;51.042;13.804;2022-11-11T16:17:32;10.60;1.00
19033;DHT22;9649;51.042;13.804;2022-11-11T16:22:40;10.60;1.00
19033;DHT22;9649;51.042;13.804;2022-11-11T16:27:45;10.60;1.00
19033;DHT22;9649;51.042;13.804;2022-11-11T16:32:48;10.40;1.00
19033;DHT22;9649;51.042;13.804;2022-11-11T16:37:53;10.20;8.50
19033;DHT22;9649;51.042;13.804;2022-11-11T16:43:16;10.20;16.00
19033;DHT22;9649;51.042;13.804;2022-11-11T16:48:48;10.00;38.90
19033;DHT22;9649;51.042;13.804;2022-11-11T16:54:05;10.00;24.90
19033;DHT22;9649;51.042;13.804;2022-11-11T16:59:10;9.90;54.50
19033;DHT22;9649;51.042;13.804;2022-11-11T17:04:14;9.90;50.30
19033;DHT22;9649;51.042;13.804;2022-11-11T17:09:32;9.80;81.10
19033;DHT22;9649;51.042;13.804;2022-11-11T17:14:37;9.70;99.90
19033;DHT22;9649;51.042;13.804;2022-11-11T17:19:40;9.50;99.90
19033;DHT22;9649;51.042;13.804;2022-11-11T17:24:44;9.50;99.90
19033;DHT22;9649;51.042;13.804;2022-11-11T17:29:47;9.50;99.90
19033;DHT22;9649;51.042;13.804;2022-11-11T17:34:50;9.40;99.90
19033;DHT22;9649;51.042;13.804;2022-11-11T17:39:54;9.30;99.90
19033;DHT22;9649;51.042;13.804;2022-11-11T17:44:57;9.10;99.90
19033;DHT22;9649;51.042;13.804;2022-11-11T17:50:00;9.10;99.90
19033;DHT22;9649;51.042;13.804;2022-11-11T17:55:05;9.10;99.90
19033;DHT22;9649;51.042;13.804;2022-11-11T18:00:09;9.10;99.90
19033;DHT22;9649;51.042;13.804;2022-11-11T18:05:12;9.00;99.90
19033;DHT22;9649;51.042;13.804;2022-11-11T18:10:17;8.90;99.90
19033;DHT22;9649;51.042;13.804;2022-11-11T18:15:20;8.80;99.90
19033;DHT22;9649;51.042;13.804;2022-11-11T18:20:23;8.70;99.90
19033;DHT22;9649;51.042;13.804;2022-11-11T18:25:27;8.60;99.90
19033;DHT22;9649;51.042;13.804;2022-11-11T18:30:29;8.50;99.90
19033;DHT22;9649;51.042;13.804;2022-11-11T18:35:32;8.40;99.90
19033;DHT22;9649;51.042;13.804;2022-11-11T18:40:38;8.40;99.90
19033;DHT22;9649;51.042;13.804;2022-11-11T18:45:40;8.20;99.90
19033;DHT22;9649;51.042;13.804;2022-11-11T18:50:43;7.90;99.90
19033;DHT22;9649;51.042;13.804;2022-11-11T18:55:59;8.00;99.90
19033;DHT22;9649;51.042;13.804;2022-11-11T19:01:04;8.00;99.90
19033;DHT22;9649;51.042;13.804;2022-11-11T19:06:09;8.00;99.90
19033;DHT22;9649;51.042;13.804;2022-11-11T19:11:13;7.80;99.90
19033;DHT22;9649;51.042;13.804;2022-11-11T19:16:21;7.80;99.90
19033;DHT22;9649;51.042;13.804;2022-11-11T19:21:26;7.90;99.90
19033;DHT22;9649;51.042;13.804;2022-11-11T19:26:30;7.80;99.90
19033;DHT22;9649;51.042;13.804;2022-11-11T19:31:33;7.70;99.90
19033;DHT22;9649;51.042;13.804;2022-11-11T19:36:36;7.60;99.90
19033;DHT22;9649;51.042;13.804;2022-11-11T19:41:40;7.50;99.90
19033;DHT22;9649;51.042;13.804;2022-11-11T19:46:43;7.40;99.90
19033;DHT22;9649;51.042;13.804;2022-11-11T19:51:46;7.60;99.90
19033;DHT22;9649;51.042;13.804;2022-11-11T19:56:51;7.50;99.90
19033;DHT22;9649;51.042;13.804;2022-11-11T20:01:53;7.40;99.90
19033;DHT22;9649;51.042;13.804;2022-11-11T20:06:57;7.30;99.90
19033;DHT22;9649;51.042;13.804;2022-11-11T20:12:02;7.50;99.90
19033;DHT22;9649;51.042;13.804;2022-11-11T20:17:05;7.50;99.90
19033;DHT22;9649;51.042;13.804;2022-11-11T20:22:08;7.10;99.90
19033;DHT22;9649;51.042;13.804;2022-11-11T20:27:13;7.20;99.90
19033;DHT22;9649;51.042;13.804;2022-11-11T20:32:16;7.20;99.90
19033;DHT22;9649;51.042;13.804;2022-11-11T20:37:20;7.30;99.90
19033;DHT22;9649;51.042;13.804;2022-11-11T20:42:24;7.30;99.90
19033;DHT22;9649;51.042;13.804;2022-11-11T20:47:27;7.30;99.90
19033;DHT22;9649;51.042;13.804;2022-11-11T20:52:35;7.20;99.90
19033;DHT22;9649;51.042;13.804;2022-11-11T20:57:39;7.30;99.90
19033;DHT22;9649;51.042;13.804;2022-11-11T21:02:41;7.30;99.90
19033;DHT22;9649;51.042;13.804;2022-11-11T21:07:47;7.20;99.90
19033;DHT22;9649;51.042;13.804;2022-11-11T21:12:51;7.10;99.90
19033;DHT22;9649;51.042;13.804;2022-11-11T21:17:56;7.00;99.90
19033;DHT22;9649;51.042;13.804;2022-11-11T21:22:58;7.00;99.90
19033;DHT22;9649;51.042;13.804;2022-11-11T21:28:03;7.00;99.90
19033;DHT22;9649;51.042;13.804;2022-11-11T21:33:06;7.00;99.90
19033;DHT22;9649;51.042;13.804;2022-11-11T21:38:09;6.90;99.90
19033;DHT22;9649;51.042;13.804;2022-11-11T21:43:13;6.80;99.90
19033;DHT22;9649;51.042;13.804;2022-11-11T21:48:16;6.80;99.90
19033;DHT22;9649;51.042;13.804;2022-11-11T21:53:25;6.80;99.90
19033;DHT22;9649;51.042;13.804;2022-11-11T21:58:29;6.80;99.90
19033;DHT22;9649;51.042;13.804;2022-11-11T22:03:32;6.70;99.90
19033;DHT22;9649;51.042;13.804;2022-11-11T22:08:36;6.70;99.90
19033;DHT22;9649;51.042;13.804;2022-11-11T22:13:41;6.70;99.90
19033;DHT22;9649;51.042;13.804;2022-11-11T22:18:44;6.70;99.90
19033;DHT22;9649;51.042;13.804;2022-11-11T22:23:49;6.60;99.90
19033;DHT22;9649;51.042;13.804;2022-11-11T22:28:55;6.50;99.90
19033;DHT22;9649;51.042;13.804;2022-11-11T22:33:59;6.50;99.90
19033;DHT22;9649;51.042;13.804;2022-11-11T22:39:03;6.50;99.90
19033;DHT22;9649;51.042;13.804;2022-11-11T22:44:08;6.50;99.90
19033;DHT22;9649;51.042;13.804;2022-11-11T22:49:11;6.50;99.90
19033;DHT22;9649;51.042;13.804;2022-11-11T22:54:18;6.30;99.90
19033;DHT22;9649;51.042;13.804;2022-11-11T22:59:22;6.40;99.90
19033;DHT22;9649;51.042;13.804;2022-11-11T23:04:25;6.30;99.90
19033;DHT22;9649;51.042;13.804;2022-11-11T23:09:28;6.30;99.90
19033;DHT22;9649;51.042;13.804;2022-11-11T23:14:32;6.20;99.90
19033;DHT22;9649;51.042;13.804;2022-11-11T23:19:35;6.20;99.90
19033;DHT22;9649;51.042;13.804;2022-11-11T23:24:39;6.10;99.90
19033;DHT22;9649;51.042;13.804;2022-11-11T23:29:43;6.20;99.90
19033;DHT22;9649;51.042;13.804;2022-11-11T23:34:52;6.10;99.90
19033;DHT22;9649;51.042;13.804;2022-11-11T23:39:55;6.10;99.90
19033;DHT22;9649;51.042;13.804;2022-11-11T23:44:59;6.10;99.90
19033;DHT22;9649;51.042;13.804;2022-11-11T23:50:02;6.00;99.90
19033;DHT22;9649;51.042;13.804;2022-11-11T23:55:06;5.90;99.90
